石垣 の空港の天気 - METARとTAF

石垣島 ( ROIG / ISG ) - 沖縄県石垣市石垣島
飛行場実況気象(Metar)
観測時間12/15 20:00 JST (12/15 11:00 UTC)
風向・風速北東 7m/s
視程10km以上
天気現象
少しの雲 雲底高度 880m
全天の8割程度の雲 雲底高度 1280m
気温22℃
湿度69%
気圧1018hPa
METARROIG 151100Z 05013KT 9999 FEW029 BKN042 22/16 Q1018
過去の天気等 Google飛行場航空写真 Wunderground天気予報

過去48時間のMETAR

飛行場予報(TAF)
発表時間: 12/15 20:12 JST (12/15 11:12 UTC)
予報対象時間: 15日21時 JST ~ 17日3時 JST
風向・風速東北東 6m/s
視程10km以上
少しの雲 雲底高度 910m
全天の8割程度の雲 雲底高度 1,370m
16日15時 JST ~ 16日18時 JST に徐々に
風向・風速北北東 13m/s
16日15時 JST ~ 16日18時 JST に一時的に
風向・風速北北東 14m/s 瞬間風速 20m/s
視程4,000m
天気現象しゅう雨
16日18時 JST ~ 17日3時 JST に一時的に
風向・風速北北東 14m/s 瞬間風速 20m/s
TAF ROIG 151112Z 1512/1618 07012KT 9999 FEW030 BKN045
BECMG 1606/1609 02025KT
TEMPO 1606/1609 02027G38KT 4000 SHRA
TEMPO 1609/1618 02027G38KT
日本の空港のMETAR・TAFへのリンク

RJTT 東京国際空港
RJAA 新東京国際空港
RJBB 関西国際空港
RJOO 大阪空港
RJGG 中部国際空港
RJCC 新千歳空港
RJFF 福岡空港
ROAH 那覇空港


RJEC 旭川空港
RJCH 函館空港
RJCK 釧路空港
RJCM 女満別空港
RJCB 帯広空港
RJSA 青森空港
RJSS 仙台空港
RJSK 秋田空港
RJSF 福島空港
RJAH 茨城空港
RJSN 新潟空港
RJNT 富山空港
RJNK 小松飛行場
RJNS 静岡空港
RJOH 美保飛行場
RJOC 出雲空港
RJOB 岡山空港
RJOA 広島空港
RJOI 岩国飛行場
RJOT 高松空港
RJOM 松山空港
RJOK 高知空港
RJFR 北九州空港
RJFT 熊本空港
RJFU 長崎空港
RJFS 佐賀空港
RJFO 大分空港
RJFM 宮崎空港
RJFK 鹿児島空港
ROIG 石垣島空港
RJTY 横田飛行場
ROTM 普天間飛行場
RODN 嘉手納飛行場